Time;durP1;ratioP1;P1;durP2;ratioP2;P2;SDS_P1;SDS_P2;PMS_P1;PMS_P2;Temp;Humidity;BMP_temperature;BMP_pressure;BME280_temperature;BME280_humidity;BME280_pressure;Samples;Min_cycle;Max_cycle;Signal;HPM_P1;HPM_P2
2022/09/11 00:01:15;;;;;;;2.13;0.88;;;;;;;;;;4980241;28;20053;-70
2022/09/11 00:03:42;;;;;;;2.05;1.00;;;;;;;;;;4981446;28;20061;-69
2022/09/11 00:06:09;;;;;;;2.42;1.10;;;;;;;;;;4981834;28;20153;-70
2022/09/11 00:08:37;;;;;;;6.20;1.20;;;;;;;;;;4981311;28;20054;-70
2022/09/11 00:11:12;;;;;;;2.83;0.98;;;;;;;;;;4981499;28;20058;-69
2022/09/11 00:13:39;;;;;;;1.55;0.90;;;;;;;;;;4981142;28;20503;-69
2022/09/11 00:16:06;;;;;;;6.85;0.95;;;;;;;;;;4980979;28;20054;-69
2022/09/11 00:18:34;;;;;;;3.53;0.90;;;;;;;;;;4981727;28;20081;-70
2022/09/11 00:21:02;;;;;;;1.95;0.75;;;;;;;;;;4981364;28;20050;-69
2022/09/11 00:23:27;;;;;;;1.77;0.70;;;;;;;;;;4980632;28;20109;-70
2022/09/11 00:25:53;;;;;;;5.00;1.15;;;;;;;;;;4981420;28;20046;-70
2022/09/11 00:28:22;;;;;;;3.92;0.93;;;;;;;;;;4981096;28;20057;-70
2022/09/11 00:31:04;;;;;;;3.38;1.05;;;;;;;;;;4978777;28;20510;-69
2022/09/11 00:33:30;;;;;;;3.20;0.80;;;;;;;;;;4979539;28;20149;-69
2022/09/11 00:35:58;;;;;;;1.23;0.77;;;;;;;;;;4980999;28;20127;-70
2022/09/11 00:38:27;;;;;;;1.20;0.80;;;;;;;;;;4979628;28;20054;-70
2022/09/11 00:40:53;;;;;;;3.13;0.73;;;;;;;;;;4981580;28;20068;-70
2022/09/11 00:43:20;;;;;;;2.53;1.00;;;;;;;;;;4979178;28;20042;-71
2022/09/11 00:45:51;;;;;;;2.47;0.77;;;;;;;;;;4981229;28;20078;-70
2022/09/11 00:48:20;;;;;;;3.40;0.73;;;;;;;;;;4995822;28;20047;-70
2022/09/11 00:50:48;;;;;;;2.20;0.80;;;;;;;;;;4979451;28;20517;-70
2022/09/11 00:53:16;;;;;;;4.30;1.17;;;;;;;;;;4981002;28;20053;-70
2022/09/11 00:55:46;;;;;;;2.88;0.80;;;;;;;;;;4980679;28;20050;-70
2022/09/11 00:58:17;;;;;;;3.50;1.02;;;;;;;;;;4981267;28;20407;-70
2022/09/11 01:00:44;;;;;;;4.30;0.90;;;;;;;;;;4979004;28;20518;-70
2022/09/11 01:03:10;;;;;;;3.75;1.02;;;;;;;;;;4981030;28;20042;-70
2022/09/11 01:05:40;;;;;;;2.05;0.85;;;;;;;;;;4980373;28;20105;-68
2022/09/11 01:08:06;;;;;;;0.82;0.80;;;;;;;;;;4979459;28;20042;-68
2022/09/11 01:10:42;;;;;;;1.48;0.80;;;;;;;;;;4980469;28;20411;-68
2022/09/11 01:13:20;;;;;;;3.90;0.90;;;;;;;;;;4975918;28;20450;-68
2022/09/11 01:16:11;;;;;;;5.50;0.70;;;;;;;;;;4979522;28;20061;-67
2022/09/11 01:18:52;;;;;;;2.17;1.08;;;;;;;;;;4995881;28;20049;-67
2022/09/11 01:21:37;;;;;;;2.47;0.80;;;;;;;;;;4979547;28;20598;-67
2022/09/11 01:24:24;;;;;;;4.80;0.90;;;;;;;;;;4980666;28;20161;-67
2022/09/11 01:27:08;;;;;;;4.60;0.85;;;;;;;;;;4979700;28;20522;-67
2022/09/11 01:29:41;;;;;;;1.13;0.73;;;;;;;;;;4977521;28;20050;-67
2022/09/11 01:32:15;;;;;;;2.83;1.10;;;;;;;;;;4979203;28;20042;-67
2022/09/11 01:34:52;;;;;;;3.95;1.13;;;;;;;;;;4979545;28;20097;-67
2022/09/11 01:38:02;;;;;;;1.52;0.80;;;;;;;;;;4994781;28;20055;-70
2022/09/11 01:40:36;;;;;;;1.10;0.80;;;;;;;;;;4925674;28;20147;-70
2022/09/11 01:43:05;;;;;;;1.75;0.70;;;;;;;;;;4971828;28;20129;-70
2022/09/11 01:45:36;;;;;;;3.72;1.00;;;;;;;;;;4980693;28;20587;-69
2022/09/11 01:48:02;;;;;;;2.20;0.90;;;;;;;;;;4969545;28;20096;-71
2022/09/11 01:50:31;;;;;;;2.75;1.02;;;;;;;;;;4982421;28;20046;-71
2022/09/11 01:53:02;;;;;;;2.63;0.77;;;;;;;;;;4982651;28;20535;-70
2022/09/11 01:55:41;;;;;;;5.43;1.30;;;;;;;;;;4981665;28;20415;-69
2022/09/11 01:58:23;;;;;;;1.60;1.10;;;;;;;;;;4982728;28;20885;-70
2022/09/11 02:00:52;;;;;;;4.63;1.00;;;;;;;;;;4982350;28;20212;-69
2022/09/11 02:03:24;;;;;;;1.63;1.08;;;;;;;;;;4983625;28;20042;-70
2022/09/11 02:05:52;;;;;;;;;;;;;;;;;;4982560;28;20105;-69
2022/09/11 02:08:36;;;;;;;1.15;0.88;;;;;;;;;;4982839;28;20706;-69
2022/09/11 02:11:07;;;;;;;2.42;1.13;;;;;;;;;;4982434;28;20068;-71
2022/09/11 02:13:48;;;;;;;3.40;1.20;;;;;;;;;;4981888;28;20070;-69
2022/09/11 02:16:37;;;;;;;2.25;1.00;;;;;;;;;;4998061;28;20293;-70
2022/09/11 02:19:05;;;;;;;3.47;1.20;;;;;;;;;;4982281;28;20054;-70
2022/09/11 02:21:32;;;;;;;4.55;0.98;;;;;;;;;;4983193;28;20277;-70
2022/09/11 02:23:58;;;;;;;1.67;1.17;;;;;;;;;;4983712;28;20042;-70
2022/09/11 02:26:26;;;;;;;5.57;1.13;;;;;;;;;;4982069;28;20047;-69
2022/09/11 02:28:53;;;;;;;1.77;1.00;;;;;;;;;;4983039;28;20120;-70
2022/09/11 02:31:19;;;;;;;2.28;1.27;;;;;;;;;;4981565;28;20407;-70
2022/09/11 02:33:46;;;;;;;2.60;1.00;;;;;;;;;;4982045;28;20113;-70
2022/09/11 02:36:30;;;;;;;3.90;1.13;;;;;;;;;;4982173;28;20057;-70
2022/09/11 02:39:14;;;;;;;3.63;1.10;;;;;;;;;;4982721;28;20125;-69
2022/09/11 02:41:52;;;;;;;5.45;1.10;;;;;;;;;;4997211;28;20057;-69
2022/09/11 02:44:33;;;;;;;2.63;1.05;;;;;;;;;;4998246;28;20046;-68
2022/09/11 02:47:09;;;;;;;1.75;1.08;;;;;;;;;;4981832;28;20058;-67
2022/09/11 02:49:53;;;;;;;1.00;0.90;;;;;;;;;;4980713;28;20050;-68
2022/09/11 02:52:27;;;;;;;3.53;1.08;;;;;;;;;;4982043;28;20084;-68
2022/09/11 02:55:04;;;;;;;2.65;0.85;;;;;;;;;;4981645;28;20458;-68
2022/09/11 02:57:36;;;;;;;2.78;1.00;;;;;;;;;;4981170;28;20050;-68
2022/09/11 03:00:04;;;;;;;;;;;;;;;;;;4981680;28;20066;-67
2022/09/11 03:02:36;;;;;;;3.80;1.00;;;;;;;;;;4997172;28;20358;-68
2022/09/11 03:05:03;;;;;;;6.47;0.98;;;;;;;;;;4981654;28;20060;-69
2022/09/11 03:07:29;;;;;;;3.22;1.10;;;;;;;;;;4982232;28;20088;-71
2022/09/11 03:09:57;;;;;;;2.88;1.05;;;;;;;;;;4981325;28;20058;-70
2022/09/11 03:12:23;;;;;;;2.97;1.02;;;;;;;;;;4979197;28;20109;-71
2022/09/11 03:14:50;;;;;;;2.92;0.95;;;;;;;;;;4981174;28;20050;-69
2022/09/11 03:17:16;;;;;;;1.35;1.10;;;;;;;;;;4981172;28;20061;-70
2022/09/11 03:19:41;;;;;;;3.60;1.30;;;;;;;;;;4981597;28;20042;-72
2022/09/11 03:22:07;;;;;;;3.30;1.33;;;;;;;;;;4981879;28;20057;-70
2022/09/11 03:24:33;;;;;;;2.70;1.05;;;;;;;;;;4981950;28;20038;-69
2022/09/11 03:26:59;;;;;;;2.45;1.15;;;;;;;;;;4964976;28;20190;-71
2022/09/11 03:29:26;;;;;;;3.83;1.08;;;;;;;;;;4961781;28;20500;-69
2022/09/11 03:31:52;;;;;;;1.55;0.90;;;;;;;;;;4982153;28;20811;-69
2022/09/11 03:34:18;;;;;;;1.30;1.20;;;;;;;;;;4980746;28;20066;-69
2022/09/11 03:36:46;;;;;;;2.65;0.93;;;;;;;;;;4980832;28;20046;-69
2022/09/11 03:39:13;;;;;;;2.65;1.23;;;;;;;;;;4980184;28;21054;-70
2022/09/11 03:41:38;;;;;;;1.75;1.00;;;;;;;;;;4981812;28;20153;-70
2022/09/11 03:44:03;;;;;;;2.67;1.27;;;;;;;;;;4982056;28;20050;-70
2022/09/11 03:46:29;;;;;;;3.15;1.05;;;;;;;;;;4979996;28;20050;-70
2022/09/11 03:48:56;;;;;;;6.53;1.60;;;;;;;;;;4980414;28;20046;-70
2022/09/11 03:51:21;;;;;;;4.05;1.08;;;;;;;;;;4981300;28;20042;-71
2022/09/11 03:53:47;;;;;;;5.82;1.30;;;;;;;;;;4978088;28;20065;-70
2022/09/11 03:56:13;;;;;;;2.95;1.20;;;;;;;;;;4968073;28;20053;-71
2022/09/11 03:58:44;;;;;;;1.98;1.15;;;;;;;;;;4980564;28;20054;-70
2022/09/11 04:01:12;;;;;;;3.22;1.38;;;;;;;;;;4980167;28;20068;-70
2022/09/11 04:03:40;;;;;;;1.92;0.90;;;;;;;;;;4980031;28;20504;-70
2022/09/11 04:06:09;;;;;;;2.35;1.05;;;;;;;;;;4985563;28;20110;-70
2022/09/11 04:08:38;;;;;;;2.38;1.05;;;;;;;;;;4979202;28;20053;-70
2022/09/11 04:11:07;;;;;;;3.63;0.90;;;;;;;;;;4980103;28;20561;-70
2022/09/11 04:13:37;;;;;;;1.50;0.93;;;;;;;;;;4979690;28;20049;-69
2022/09/11 04:16:10;;;;;;;1.38;1.00;;;;;;;;;;4979951;28;20081;-69
2022/09/11 04:18:38;;;;;;;1.98;0.88;;;;;;;;;;4969383;28;20422;-69
2022/09/11 04:21:05;;;;;;;0.98;0.95;;;;;;;;;;4962194;28;20046;-68
2022/09/11 04:23:32;;;;;;;4.68;0.90;;;;;;;;;;4976721;28;20038;-70
2022/09/11 04:25:59;;;;;;;2.20;1.02;;;;;;;;;;4966224;28;20683;-69
2022/09/11 04:28:30;;;;;;;1.08;0.88;;;;;;;;;;4980594;28;20046;-69
2022/09/11 04:31:01;;;;;;;1.95;0.82;;;;;;;;;;4981097;28;20042;-69
2022/09/11 04:33:27;;;;;;;1.55;1.15;;;;;;;;;;4979232;28;20054;-69
2022/09/11 04:35:52;;;;;;;5.57;1.27;;;;;;;;;;4979798;28;20290;-68
2022/09/11 04:38:20;;;;;;;5.05;1.10;;;;;;;;;;4979707;28;20057;-69
2022/09/11 04:40:46;;;;;;;1.50;1.00;;;;;;;;;;4978657;28;20253;-69
2022/09/11 04:43:12;;;;;;;1.30;0.90;;;;;;;;;;4979843;28;20489;-69
2022/09/11 04:45:39;;;;;;;3.50;1.00;;;;;;;;;;4978829;28;20054;-71
2022/09/11 04:48:05;;;;;;;3.45;1.13;;;;;;;;;;4979537;28;20125;-71
2022/09/11 04:50:31;;;;;;;2.15;1.02;;;;;;;;;;4979001;28;20115;-70
2022/09/11 04:53:11;;;;;;;1.10;1.00;;;;;;;;;;4980217;28;20038;-70
2022/09/11 04:55:36;;;;;;;3.42;0.90;;;;;;;;;;4978957;28;20053;-70
2022/09/11 04:58:02;;;;;;;3.78;1.15;;;;;;;;;;4979658;28;20078;-69
2022/09/11 05:00:28;;;;;;;2.78;1.00;;;;;;;;;;4979149;28;20895;-69
2022/09/11 05:02:54;;;;;;;3.70;1.20;;;;;;;;;;4979395;28;20042;-69
2022/09/11 05:05:20;;;;;;;3.65;0.90;;;;;;;;;;4979128;28;20495;-69
2022/09/11 05:07:48;;;;;;;1.63;1.17;;;;;;;;;;4979354;28;20057;-70
2022/09/11 05:10:15;;;;;;;2.83;1.05;;;;;;;;;;4980648;28;20042;-68
2022/09/11 05:12:40;;;;;;;1.27;0.90;;;;;;;;;;4980425;28;20376;-69
2022/09/11 05:15:08;;;;;;;3.25;1.50;;;;;;;;;;4979968;28;20069;-69
2022/09/11 05:17:34;;;;;;;2.00;1.05;;;;;;;;;;4981436;28;20100;-69
2022/09/11 05:20:02;;;;;;;2.05;0.90;;;;;;;;;;4983003;28;20045;-70
2022/09/11 05:22:29;;;;;;;3.08;0.98;;;;;;;;;;4983258;28;20407;-70
2022/09/11 05:24:57;;;;;;;2.22;1.15;;;;;;;;;;4982873;28;20046;-70
2022/09/11 05:27:23;;;;;;;4.40;1.00;;;;;;;;;;4983112;28;20114;-71
2022/09/11 05:29:49;;;;;;;3.08;1.23;;;;;;;;;;4982685;28;20050;-70
2022/09/11 05:32:14;;;;;;;1.08;0.80;;;;;;;;;;4999184;28;20046;-68
2022/09/11 05:34:40;;;;;;;1.17;0.90;;;;;;;;;;4982595;28;20047;-68
2022/09/11 05:37:08;;;;;;;0.75;0.65;;;;;;;;;;4983570;28;20051;-70
2022/09/11 05:39:39;;;;;;;3.70;0.93;;;;;;;;;;4982000;28;20050;-69
2022/09/11 05:42:06;;;;;;;1.73;0.90;;;;;;;;;;4983264;28;20046;-70
2022/09/11 05:44:35;;;;;;;2.70;0.95;;;;;;;;;;4982918;28;20065;-70
2022/09/11 05:47:01;;;;;;;5.70;1.10;;;;;;;;;;4982510;28;20058;-69
2022/09/11 05:49:28;;;;;;;1.65;1.00;;;;;;;;;;4982138;28;20034;-69
2022/09/11 05:51:53;;;;;;;3.70;0.90;;;;;;;;;;4982626;28;20116;-69
2022/09/11 05:54:19;;;;;;;1.00;1.00;;;;;;;;;;4982661;28;20089;-70
2022/09/11 05:56:44;;;;;;;1.75;1.10;;;;;;;;;;4982672;28;20087;-70
2022/09/11 05:59:16;;;;;;;3.85;1.70;;;;;;;;;;4982249;28;20062;-70
2022/09/11 06:01:43;;;;;;;3.70;1.10;;;;;;;;;;4983650;28;20930;-70
2022/09/11 06:04:34;;;;;;;2.63;1.10;;;;;;;;;;4980922;28;20042;-69
2022/09/11 06:07:00;;;;;;;2.15;1.10;;;;;;;;;;4982708;28;20901;-70
2022/09/11 06:09:27;;;;;;;2.25;1.20;;;;;;;;;;4981609;28;20050;-70
2022/09/11 06:11:52;;;;;;;5.47;1.08;;;;;;;;;;4977978;28;20054;-69
2022/09/11 06:14:18;;;;;;;1.50;1.10;;;;;;;;;;4962836;28;20129;-70
2022/09/11 06:16:44;;;;;;;1.27;1.05;;;;;;;;;;4974618;28;20073;-69
2022/09/11 06:19:13;;;;;;;2.58;1.10;;;;;;;;;;4981975;28;20034;-70
2022/09/11 06:21:39;;;;;;;2.88;1.20;;;;;;;;;;4997268;28;20054;-70
2022/09/11 06:24:17;;;;;;;3.92;0.95;;;;;;;;;;4982515;28;20074;-70
2022/09/11 06:26:45;;;;;;;2.70;1.30;;;;;;;;;;4982278;28;20061;-70
2022/09/11 06:29:13;;;;;;;1.65;0.95;;;;;;;;;;4965515;28;20038;-69
2022/09/11 06:31:42;;;;;;;3.15;1.67;;;;;;;;;;4978988;28;20066;-70
2022/09/11 06:34:07;;;;;;;2.20;1.17;;;;;;;;;;4963598;28;20137;-71
2022/09/11 06:36:34;;;;;;;2.10;1.00;;;;;;;;;;4957073;28;20046;-70
2022/09/11 06:39:04;;;;;;;5.65;1.17;;;;;;;;;;4981721;28;20054;-70
2022/09/11 06:41:32;;;;;;;1.80;0.90;;;;;;;;;;4981295;28;20529;-69
2022/09/11 06:44:03;;;;;;;3.63;0.80;;;;;;;;;;4982983;28;20181;-70
2022/09/11 06:46:30;;;;;;;3.55;1.10;;;;;;;;;;4981909;28;20452;-69
2022/09/11 06:48:56;;;;;;;1.00;0.93;;;;;;;;;;4981471;28;20511;-70
2022/09/11 06:51:26;;;;;;;1.08;0.75;;;;;;;;;;4980433;28;20119;-69
2022/09/11 06:53:55;;;;;;;1.67;0.82;;;;;;;;;;4982487;28;20180;-69
2022/09/11 06:56:21;;;;;;;3.40;1.05;;;;;;;;;;4981926;28;20578;-70
2022/09/11 06:58:46;;;;;;;3.10;1.65;;;;;;;;;;4982606;28;20050;-69
2022/09/11 07:01:18;;;;;;;4.50;1.17;;;;;;;;;;4981387;28;20078;-69
2022/09/11 07:03:49;;;;;;;1.80;1.00;;;;;;;;;;4980504;28;20053;-70
2022/09/11 07:06:25;;;;;;;2.95;1.15;;;;;;;;;;4981479;28;20057;-70
2022/09/11 07:08:59;;;;;;;0.80;0.80;;;;;;;;;;4981631;28;20050;-70
2022/09/11 07:11:27;;;;;;;0.98;0.73;;;;;;;;;;4996895;28;20388;-69
2022/09/11 07:13:52;;;;;;;2.40;1.08;;;;;;;;;;4981287;28;20136;-69
2022/09/11 07:16:18;;;;;;;1.27;0.90;;;;;;;;;;4981353;28;20042;-69
2022/09/11 07:18:50;;;;;;;1.50;1.20;;;;;;;;;;4981523;28;20053;-70
2022/09/11 07:21:22;;;;;;;5.07;1.05;;;;;;;;;;4981122;28;20455;-70
2022/09/11 07:23:54;;;;;;;1.88;0.98;;;;;;;;;;4970210;28;20046;-70
2022/09/11 07:26:22;;;;;;;1.13;1.02;;;;;;;;;;4981610;28;20054;-70
2022/09/11 07:28:51;;;;;;;1.60;1.00;;;;;;;;;;4981827;28;20076;-70
2022/09/11 07:31:19;;;;;;;3.15;1.25;;;;;;;;;;4983222;28;20066;-70
2022/09/11 07:33:46;;;;;;;2.10;1.38;;;;;;;;;;4981012;28;20046;-70
2022/09/11 07:36:15;;;;;;;2.80;1.38;;;;;;;;;;4980557;28;20054;-70
2022/09/11 07:38:43;;;;;;;4.93;1.65;;;;;;;;;;4981608;28;21074;-69
2022/09/11 07:41:12;;;;;;;4.25;2.25;;;;;;;;;;4980271;28;20046;-70
2022/09/11 07:43:47;;;;;;;1.50;1.40;;;;;;;;;;4964538;28;20159;-70
2022/09/11 07:46:14;;;;;;;1.65;1.23;;;;;;;;;;4980448;28;20084;-69
2022/09/11 07:48:41;;;;;;;2.13;1.25;;;;;;;;;;4982368;28;20069;-70
2022/09/11 07:51:09;;;;;;;1.67;1.50;;;;;;;;;;4980189;28;20034;-70
2022/09/11 07:53:46;;;;;;;2.40;1.20;;;;;;;;;;4962704;28;20046;-69
2022/09/11 07:56:15;;;;;;;1.60;1.20;;;;;;;;;;4970605;28;20459;-70
2022/09/11 07:58:42;;;;;;;2.67;1.40;;;;;;;;;;4981881;28;20049;-69
2022/09/11 08:01:11;;;;;;;6.20;1.58;;;;;;;;;;4977444;28;20960;-69
2022/09/11 08:03:36;;;;;;;2.05;1.45;;;;;;;;;;4969112;28;20081;-69
2022/09/11 08:06:05;;;;;;;3.67;1.45;;;;;;;;;;4971458;28;20073;-69
2022/09/11 08:08:31;;;;;;;1.58;1.23;;;;;;;;;;4980898;28;20046;-69
2022/09/11 08:11:06;;;;;;;1.48;1.38;;;;;;;;;;4978731;28;20046;-68
2022/09/11 08:13:33;;;;;;;2.25;1.40;;;;;;;;;;4979644;28;20053;-69
2022/09/11 08:15:59;;;;;;;1.88;1.70;;;;;;;;;;4980214;28;20200;-69
2022/09/11 08:18:26;;;;;;;1.80;1.50;;;;;;;;;;4980286;28;20457;-69
2022/09/11 08:20:53;;;;;;;2.00;1.63;;;;;;;;;;4964928;28;20626;-68
2022/09/11 08:23:20;;;;;;;1.70;1.52;;;;;;;;;;4959387;28;20511;-69
2022/09/11 08:25:46;;;;;;;2.53;1.65;;;;;;;;;;4976160;28;20061;-68
2022/09/11 08:28:12;;;;;;;3.97;1.30;;;;;;;;;;4960670;28;20572;-68
2022/09/11 08:30:38;;;;;;;2.97;1.60;;;;;;;;;;4969870;28;20141;-69
2022/09/11 08:33:05;;;;;;;3.58;1.25;;;;;;;;;;4980306;28;20426;-69
2022/09/11 08:35:34;;;;;;;1.50;1.40;;;;;;;;;;4979363;28;20141;-69
2022/09/11 08:38:01;;;;;;;5.45;1.60;;;;;;;;;;4980196;28;20137;-68
2022/09/11 08:40:29;;;;;;;1.95;1.75;;;;;;;;;;4973702;28;20050;-70
2022/09/11 08:43:00;;;;;;;2.30;1.92;;;;;;;;;;4977417;28;20046;-68
2022/09/11 08:45:32;;;;;;;3.13;1.63;;;;;;;;;;4972813;28;20038;-68
2022/09/11 08:48:00;;;;;;;2.75;2.00;;;;;;;;;;4977206;28;20042;-68
2022/09/11 08:50:33;;;;;;;1.92;1.80;;;;;;;;;;4977677;28;20050;-68
2022/09/11 08:53:01;;;;;;;3.22;2.33;;;;;;;;;;4976106;28;20049;-69
2022/09/11 08:55:42;;;;;;;1.80;1.60;;;;;;;;;;4977858;28;20426;-68
2022/09/11 08:58:37;;;;;;;2.22;1.90;;;;;;;;;;4994476;28;20042;-68
2022/09/11 09:01:16;;;;;;;2.15;1.95;;;;;;;;;;4977906;28;20065;-68
2022/09/11 09:03:48;;;;;;;2.85;2.08;;;;;;;;;;4977945;28;20077;-69
2022/09/11 09:06:23;;;;;;;4.97;2.30;;;;;;;;;;4978945;28;20039;-68
2022/09/11 09:09:15;;;;;;;4.05;1.77;;;;;;;;;;4977750;28;20400;-68
2022/09/11 09:12:06;;;;;;;5.22;2.20;;;;;;;;;;4978672;28;20054;-68
2022/09/11 09:14:55;;;;;;;2.55;2.03;;;;;;;;;;4994148;28;20050;-68
2022/09/11 09:17:36;;;;;;;3.28;1.98;;;;;;;;;;4994390;28;20061;-68
2022/09/11 09:20:12;;;;;;;3.15;2.00;;;;;;;;;;4961909;28;20047;-68
2022/09/11 09:22:39;;;;;;;2.45;2.00;;;;;;;;;;4979225;28;20073;-68
2022/09/11 09:25:13;;;;;;;4.15;2.00;;;;;;;;;;4977799;28;20081;-68
2022/09/11 09:27:46;;;;;;;2.35;2.15;;;;;;;;;;4994477;28;20049;-68
2022/09/11 09:30:23;;;;;;;2.60;2.05;;;;;;;;;;4977711;28;20518;-68
2022/09/11 09:33:03;;;;;;;2.10;1.90;;;;;;;;;;4978154;28;20133;-68
2022/09/11 09:35:38;;;;;;;3.35;1.63;;;;;;;;;;4990777;28;20937;-68
2022/09/11 09:38:27;;;;;;;3.78;2.35;;;;;;;;;;4991503;28;20050;-67
2022/09/11 09:41:08;;;;;;;3.10;2.55;;;;;;;;;;4993278;28;20888;-68
2022/09/11 09:43:59;;;;;;;3.70;2.70;;;;;;;;;;4977868;28;20140;-68
2022/09/11 09:46:36;;;;;;;2.90;2.70;;;;;;;;;;4979849;28;20310;-68
2022/09/11 09:49:02;;;;;;;2.72;2.10;;;;;;;;;;4979171;28;20161;-68
2022/09/11 09:51:28;;;;;;;3.63;2.85;;;;;;;;;;4979335;28;20058;-68
2022/09/11 09:53:59;;;;;;;4.43;2.92;;;;;;;;;;4961700;28;20089;-68
2022/09/11 09:56:25;;;;;;;4.30;2.60;;;;;;;;;;4969689;28;20060;-68
2022/09/11 09:59:13;;;;;;;4.20;3.13;;;;;;;;;;4973875;28;20441;-68
2022/09/11 10:01:48;;;;;;;4.10;3.17;;;;;;;;;;4983323;28;20046;-69
2022/09/11 10:04:16;;;;;;;5.53;4.32;;;;;;;;;;5003481;28;20104;-69
2022/09/11 10:06:44;;;;;;;4.18;3.33;;;;;;;;;;4993870;28;20050;-69
2022/09/11 10:09:28;;;;;;;5.30;3.83;;;;;;;;;;4982535;28;20052;-69
2022/09/11 10:12:07;;;;;;;7.20;4.28;;;;;;;;;;4980079;28;20056;-69
2022/09/11 10:14:56;;;;;;;5.88;4.15;;;;;;;;;;4983140;28;20089;-70
2022/09/11 10:17:28;;;;;;;5.72;4.18;;;;;;;;;;4982512;28;20054;-70
2022/09/11 10:19:56;;;;;;;4.85;3.80;;;;;;;;;;4982349;28;20419;-69
2022/09/11 10:22:26;;;;;;;5.97;4.75;;;;;;;;;;4983215;28;20053;-70
2022/09/11 10:25:08;;;;;;;7.95;4.70;;;;;;;;;;4981500;28;20890;-70
2022/09/11 10:27:38;;;;;;;;;;;;;;;;;;4983232;28;20042;-70
2022/09/11 10:30:04;;;;;;;9.18;4.82;;;;;;;;;;4988197;28;19957;-70
2022/09/11 10:32:30;;;;;;;4.30;3.90;;;;;;;;;;4992487;28;20650;-69
2022/09/11 10:34:56;;;;;;;3.70;3.10;;;;;;;;;;4976736;28;20043;-70
2022/09/11 10:37:28;;;;;;;5.32;3.83;;;;;;;;;;4979985;28;20053;-74
2022/09/11 10:39:59;;;;;;;;;;;;;;;;;;4963155;28;20178;-69
2022/09/11 10:42:28;;;;;;;6.10;4.30;;;;;;;;;;4971644;28;19926;-69
2022/09/11 10:45:09;;;;;;;4.50;4.05;;;;;;;;;;4982293;28;20042;-69
2022/09/11 10:47:36;;;;;;;4.13;3.72;;;;;;;;;;4981777;28;20047;-70
2022/09/11 10:50:16;;;;;;;5.82;3.95;;;;;;;;;;4982010;28;20056;-69
2022/09/11 10:53:05;;;;;;;8.65;4.22;;;;;;;;;;4981571;28;20046;-70
2022/09/11 10:55:39;;;;;;;5.88;3.90;;;;;;;;;;4978227;28;20456;-69
2022/09/11 10:58:12;;;;;;;4.65;3.95;;;;;;;;;;4982190;28;20426;-69
2022/09/11 11:00:38;;;;;;;5.45;3.58;;;;;;;;;;4980118;28;20066;-69
2022/09/11 11:03:05;;;;;;;4.32;3.92;;;;;;;;;;4982030;28;20132;-69
2022/09/11 11:05:34;;;;;;;3.50;3.00;;;;;;;;;;4980452;28;20511;-70
2022/09/11 11:08:39;;;;;;;4.05;3.05;;;;;;;;;;4978620;28;20510;-69
2022/09/11 11:11:31;;;;;;;3.45;3.15;;;;;;;;;;4977306;28;20061;-69
2022/09/11 11:14:06;;;;;;;3.03;2.72;;;;;;;;;;4956486;28;20054;-69
2022/09/11 11:16:53;;;;;;;3.38;3.08;;;;;;;;;;4960782;28;20039;-70
2022/09/11 11:19:37;;;;;;;2.70;2.50;;;;;;;;;;4977359;28;20049;-70
2022/09/11 11:22:27;;;;;;;2.85;2.58;;;;;;;;;;4964707;28;20058;-70
2022/09/11 11:25:18;;;;;;;2.90;2.60;;;;;;;;;;4981035;28;20458;-69
2022/09/11 11:27:58;;;;;;;3.03;2.72;;;;;;;;;;4979611;28;21279;-69
2022/09/11 11:30:49;;;;;;;9.13;2.65;;;;;;;;;;4979664;28;20141;-69
2022/09/11 11:33:34;;;;;;;2.70;2.50;;;;;;;;;;4980916;28;20119;-69
2022/09/11 11:36:26;;;;;;;2.38;2.00;;;;;;;;;;4978046;28;20061;-70
2022/09/11 11:39:37;;;;;;;4.50;2.47;;;;;;;;;;4980232;28;20503;-69
2022/09/11 11:42:03;;;;;;;2.67;2.47;;;;;;;;;;4966102;28;20046;-69
2022/09/11 11:44:54;;;;;;;2.65;2.45;;;;;;;;;;4982391;28;20113;-69
2022/09/11 11:47:24;;;;;;;3.47;2.90;;;;;;;;;;4979407;28;20503;-69
2022/09/11 11:50:20;;;;;;;5.03;2.65;;;;;;;;;;4981369;28;20058;-69
2022/09/11 11:53:09;;;;;;;3.95;2.30;;;;;;;;;;4982179;28;20562;-70
2022/09/11 11:56:01;;;;;;;4.32;2.10;;;;;;;;;;4981723;28;20042;-69
2022/09/11 11:58:46;;;;;;;1.92;1.80;;;;;;;;;;4981699;28;20427;-69
2022/09/11 12:01:19;;;;;;;2.13;1.77;;;;;;;;;;4967057;28;20065;-69
2022/09/11 12:04:33;;;;;;;2.60;2.08;;;;;;;;;;4964769;28;20515;-70
2022/09/11 12:07:00;;;;;;;2.97;2.35;;;;;;;;;;4932119;28;20043;-69
2022/09/11 12:09:26;;;;;;;5.57;2.63;;;;;;;;;;4962308;28;20491;-68
2022/09/11 12:11:54;;;;;;;2.70;2.20;;;;;;;;;;4980922;28;20065;-68
2022/09/11 12:14:26;;;;;;;2.78;2.58;;;;;;;;;;4973783;28;20050;-69
2022/09/11 12:16:53;;;;;;;3.55;2.65;;;;;;;;;;4962284;28;20407;-70
2022/09/11 12:19:21;;;;;;;3.92;2.28;;;;;;;;;;4977760;28;20577;-71
2022/09/11 12:21:52;;;;;;;6.30;2.90;;;;;;;;;;4980884;28;20107;-70
2022/09/11 12:24:43;;;;;;;4.35;2.70;;;;;;;;;;4982476;28;20050;-71
2022/09/11 12:27:33;;;;;;;2.75;2.55;;;;;;;;;;4980403;28;20047;-70
2022/09/11 12:30:22;;;;;;;3.85;2.75;;;;;;;;;;4978715;28;20050;-70
2022/09/11 12:32:48;;;;;;;4.18;3.08;;;;;;;;;;4969820;28;20051;-70
2022/09/11 12:35:33;;;;;;;5.18;3.20;;;;;;;;;;4978006;28;20046;-71
2022/09/11 12:38:10;;;;;;;3.65;2.67;;;;;;;;;;4994262;28;20928;-71
2022/09/11 12:40:47;;;;;;;4.10;2.80;;;;;;;;;;4981421;28;20170;-71
2022/09/11 12:43:28;;;;;;;3.05;2.78;;;;;;;;;;4983662;28;20046;-71
2022/09/11 12:45:53;;;;;;;4.03;2.60;;;;;;;;;;4983274;28;20141;-71
2022/09/11 12:48:32;;;;;;;4.07;2.25;;;;;;;;;;4981068;28;20576;-71
2022/09/11 12:50:58;;;;;;;2.78;2.15;;;;;;;;;;4981293;28;20054;-70
2022/09/11 12:53:30;;;;;;;2.25;2.05;;;;;;;;;;4981155;28;20053;-70
2022/09/11 12:55:55;;;;;;;2.85;2.00;;;;;;;;;;4958464;28;20559;-70
2022/09/11 12:58:24;;;;;;;4.20;1.90;;;;;;;;;;4960549;28;20055;-71
2022/09/11 13:01:05;;;;;;;1.80;1.70;;;;;;;;;;4961767;28;20134;-71
2022/09/11 13:03:31;;;;;;;2.00;1.55;;;;;;;;;;4978385;28;20484;-71
2022/09/11 13:06:10;;;;;;;1.60;1.50;;;;;;;;;;4980792;28;20046;-70
2022/09/11 13:08:48;;;;;;;4.10;1.30;;;;;;;;;;4981014;28;20476;-70
2022/09/11 13:11:39;;;;;;;1.23;1.10;;;;;;;;;;4979543;28;20046;-70
2022/09/11 13:14:28;;;;;;;2.72;1.45;;;;;;;;;;4964085;28;20057;-70
2022/09/11 13:16:54;;;;;;;1.52;1.42;;;;;;;;;;4979278;28;20161;-70
2022/09/11 13:19:20;;;;;;;1.83;1.60;;;;;;;;;;4981419;28;20199;-69
2022/09/11 13:21:48;;;;;;;2.50;1.70;;;;;;;;;;4980265;28;20054;-69
2022/09/11 13:24:27;;;;;;;1.77;1.63;;;;;;;;;;4980776;28;20050;-70
2022/09/11 13:26:55;;;;;;;2.00;1.90;;;;;;;;;;4981009;28;20221;-69
2022/09/11 13:29:26;;;;;;;3.95;2.10;;;;;;;;;;4980707;28;20503;-69
2022/09/11 13:31:53;;;;;;;3.00;1.90;;;;;;;;;;4980213;28;20054;-69
2022/09/11 13:34:22;;;;;;;1.60;1.50;;;;;;;;;;4981341;28;20129;-69
2022/09/11 13:36:48;;;;;;;1.70;1.60;;;;;;;;;;4980947;28;20050;-70
2022/09/11 13:42:01;;;;;;;1.90;1.63;;;;;;;;;;5128903;22;20382;-69
2022/09/11 13:45:21;;;;;;;1.80;1.70;;;;;;;;;;4983994;28;20053;-69
2022/09/11 13:47:46;;;;;;;2.85;2.05;;;;;;;;;;4973937;28;20071;-69
2022/09/11 13:54:11;;;;;;;2.70;1.77;;;;;;;;;;4967640;28;20153;-68
2022/09/11 13:56:46;;;;;;;1.95;1.80;;;;;;;;;;4974586;28;20970;-69
2022/09/11 13:59:35;;;;;;;2.78;2.03;;;;;;;;;;4973202;28;20051;-70
2022/09/11 14:02:03;;;;;;;2.28;1.95;;;;;;;;;;4954470;28;20054;-69
2022/09/11 14:04:29;;;;;;;1.65;1.55;;;;;;;;;;4944264;28;20043;-69
2022/09/11 14:06:55;;;;;;;2.00;1.80;;;;;;;;;;4957942;28;20039;-69
2022/09/11 14:09:21;;;;;;;1.70;1.60;;;;;;;;;;4962554;28;20078;-70
2022/09/11 14:11:48;;;;;;;1.60;1.50;;;;;;;;;;4961193;28;20042;-69
2022/09/11 14:14:26;;;;;;;2.85;1.60;;;;;;;;;;4961961;28;20050;-69
2022/09/11 14:17:00;;;;;;;2.10;1.95;;;;;;;;;;4955955;28;20085;-70
2022/09/11 14:19:32;;;;;;;3.58;1.77;;;;;;;;;;4961929;28;20125;-71
2022/09/11 14:22:00;;;;;;;3.60;1.90;;;;;;;;;;4962686;28;20118;-71
2022/09/11 14:24:35;;;;;;;2.50;1.70;;;;;;;;;;4947658;28;20071;-71
2022/09/11 14:27:31;;;;;;;1.60;1.50;;;;;;;;;;4959132;28;20045;-71
2022/09/11 14:29:57;;;;;;;1.88;1.77;;;;;;;;;;4993091;28;20132;-71
2022/09/11 14:32:35;;;;;;;1.80;1.70;;;;;;;;;;4962711;28;20169;-71
2022/09/11 14:35:05;;;;;;;1.70;1.60;;;;;;;;;;4965635;28;20049;-70
2022/09/11 14:37:33;;;;;;;2.63;2.03;;;;;;;;;;4962772;28;20606;-70
2022/09/11 14:40:04;;;;;;;12.90;2.15;;;;;;;;;;4968503;28;20051;-70
2022/09/11 14:42:32;;;;;;;2.45;1.80;;;;;;;;;;4969468;28;20034;-70
2022/09/11 14:44:58;;;;;;;1.95;1.70;;;;;;;;;;4980920;28;20054;-70
2022/09/11 14:47:26;;;;;;;2.80;1.70;;;;;;;;;;4980692;28;20047;-70
2022/09/11 14:49:54;;;;;;;2.75;1.70;;;;;;;;;;4981674;28;20117;-70
2022/09/11 14:52:21;;;;;;;2.50;1.33;;;;;;;;;;4975802;28;20523;-70
2022/09/11 14:54:48;;;;;;;1.98;1.60;;;;;;;;;;4973055;28;20050;-70
2022/09/11 14:57:16;;;;;;;4.18;1.40;;;;;;;;;;4977697;28;20053;-70
2022/09/11 14:59:41;;;;;;;1.75;1.60;;;;;;;;;;4980436;28;20148;-69
2022/09/11 15:02:12;;;;;;;1.67;1.58;;;;;;;;;;4978115;28;20504;-70
2022/09/11 15:04:37;;;;;;;1.77;1.50;;;;;;;;;;4982738;28;20085;-69
2022/09/11 15:07:03;;;;;;;1.60;1.50;;;;;;;;;;4979422;28;20042;-69
2022/09/11 15:09:28;;;;;;;2.65;1.80;;;;;;;;;;4975878;28;20039;-69
2022/09/11 15:11:54;;;;;;;3.47;1.70;;;;;;;;;;4976955;28;20080;-69
2022/09/11 15:14:20;;;;;;;2.05;1.85;;;;;;;;;;4974590;28;20126;-70
2022/09/11 15:16:46;;;;;;;1.80;1.60;;;;;;;;;;4963156;28;20141;-69
2022/09/11 15:19:14;;;;;;;2.05;1.30;;;;;;;;;;4975856;28;20057;-69